Time;durP1;ratioP1;P1;durP2;ratioP2;P2;SDS_P1;SDS_P2;PMS_P1;PMS_P2;Temp;Humidity;BMP_temperature;BMP_pressure;BME280_temperature;BME280_humidity;BME280_pressure;Samples;Min_cycle;Max_cycle;Signal;HPM_P1;HPM_P2
2023/03/06 00:00:23;;;;;;;9.90;9.60;;;2.20;99.90;;;;;;5080044;28;20285;-80
2023/03/06 00:02:53;;;;;;;9.90;9.60;;;2.20;99.90;;;;;;5064842;28;20230;-82
2023/03/06 00:05:21;;;;;;;9.73;9.43;;;2.20;99.90;;;;;;5072327;28;20257;-81
2023/03/06 00:07:50;;;;;;;10.20;9.90;;;2.20;99.90;;;;;;5060164;28;20423;-80
2023/03/06 00:10:21;;;;;;;9.90;9.60;;;2.20;99.90;;;;;;5071692;28;20286;-80
2023/03/06 00:12:49;;;;;;;9.90;9.60;;;2.30;99.90;;;;;;5076203;28;20257;-80
2023/03/06 00:15:18;;;;;;;10.00;9.70;;;2.30;99.90;;;;;;5067516;28;20239;-81
2023/03/06 00:17:48;;;;;;;10.00;9.70;;;2.30;99.90;;;;;;5072552;28;20226;-80
2023/03/06 00:20:20;;;;;;;10.00;9.70;;;2.30;99.90;;;;;;5074362;28;20231;-81
2023/03/06 00:22:48;;;;;;;10.07;9.77;;;2.30;99.90;;;;;;5076552;28;20234;-81
2023/03/06 00:25:20;;;;;;;10.03;9.73;;;2.30;99.90;;;;;;5073374;28;20245;-81
2023/03/06 00:27:49;;;;;;;9.90;9.60;;;2.20;99.90;;;;;;5069663;28;20222;-80
2023/03/06 00:30:23;;;;;;;10.27;9.97;;;2.20;99.90;;;;;;5067831;28;20231;-81
2023/03/06 00:32:53;;;;;;;10.00;9.70;;;2.20;99.90;;;;;;5064834;28;20241;-81
2023/03/06 00:35:26;;;;;;;10.23;9.93;;;2.10;99.90;;;;;;5080286;28;20305;-80
2023/03/06 00:37:53;;;;;;;10.20;9.90;;;2.10;99.90;;;;;;5062332;28;20238;-81
2023/03/06 00:40:22;;;;;;;10.20;9.90;;;2.00;99.90;;;;;;5079950;28;20226;-80
2023/03/06 00:42:50;;;;;;;10.10;9.80;;;2.00;99.90;;;;;;5080702;28;20234;-80
2023/03/06 00:45:20;;;;;;;10.20;9.90;;;2.00;99.90;;;;;;5079051;28;20237;-80
2023/03/06 00:47:49;;;;;;;10.23;9.93;;;2.00;99.90;;;;;;5080286;28;20288;-80
2023/03/06 00:50:17;;;;;;;9.87;9.57;;;1.90;99.90;;;;;;5084544;28;20281;-79
2023/03/06 00:52:52;;;;;;;10.20;9.90;;;1.90;99.90;;;;;;5075658;28;20254;-80
2023/03/06 00:55:19;;;;;;;10.00;9.70;;;2.00;99.90;;;;;;5079749;28;20242;-80
2023/03/06 00:57:48;;;;;;;9.80;9.50;;;2.00;99.90;;;;;;5074154;28;20317;-80
2023/03/06 01:00:16;;;;;;;9.80;9.50;;;2.00;99.90;;;;;;5082293;28;20278;-80
2023/03/06 01:02:47;;;;;;;9.80;9.50;;;1.90;99.90;;;;;;5082211;28;20262;-80
2023/03/06 01:05:16;;;;;;;10.00;9.70;;;1.90;99.90;;;;;;5081205;28;20289;-80
2023/03/06 01:07:45;;;;;;;9.80;9.50;;;1.90;99.90;;;;;;5068696;28;20222;-80
2023/03/06 01:10:18;;;;;;;9.97;9.67;;;1.90;99.90;;;;;;5054905;28;20245;-80
2023/03/06 01:12:45;;;;;;;10.00;9.70;;;1.90;99.90;;;;;;5076625;28;20236;-81
2023/03/06 01:15:14;;;;;;;10.07;9.77;;;1.80;99.90;;;;;;5068373;28;20238;-80
2023/03/06 01:17:44;;;;;;;10.07;9.77;;;1.80;99.90;;;;;;5075646;28;20303;-80
2023/03/06 01:20:25;;;;;;;9.83;9.53;;;1.80;99.90;;;;;;5068508;28;20251;-80
2023/03/06 01:22:54;;;;;;;9.80;9.50;;;1.80;99.90;;;;;;5059793;28;20238;-80
2023/03/06 01:25:23;;;;;;;10.07;9.77;;;1.80;99.90;;;;;;5066564;28;20234;-81
2023/03/06 01:27:51;;;;;;;9.80;9.50;;;1.70;99.90;;;;;;5079670;28;20232;-80
2023/03/06 01:30:19;;;;;;;9.90;9.60;;;1.70;99.90;;;;;;5078675;28;20226;-81
2023/03/06 01:32:47;;;;;;;9.93;9.63;;;1.70;99.90;;;;;;5076548;28;20287;-81
2023/03/06 01:35:18;;;;;;;10.00;9.70;;;1.70;99.90;;;;;;5065917;28;20243;-81
2023/03/06 01:37:45;;;;;;;9.90;9.60;;;1.70;99.90;;;;;;5077754;28;20341;-80
2023/03/06 01:40:15;;;;;;;10.00;9.70;;;1.70;99.90;;;;;;5074977;28;20365;-80
2023/03/06 01:42:49;;;;;;;10.00;9.70;;;1.70;99.90;;;;;;5081800;28;21068;-81
2023/03/06 01:46:16;;;;;;;9.90;9.60;;;1.70;99.90;;;;;;5090933;28;20241;-80
2023/03/06 01:48:47;;;;;;;10.10;9.80;;;1.70;99.90;;;;;;5082230;28;20231;-80
2023/03/06 01:51:16;;;;;;;10.00;9.70;;;1.70;99.90;;;;;;5084008;28;20271;-80
2023/03/06 01:53:45;;;;;;;10.10;9.80;;;1.70;99.90;;;;;;5083244;28;20298;-80
2023/03/06 01:56:16;;;;;;;10.00;9.70;;;1.70;99.90;;;;;;5080396;28;20271;-80
2023/03/06 01:58:50;;;;;;;9.90;9.60;;;1.70;99.90;;;;;;5078775;28;20222;-80
2023/03/06 02:01:19;;;;;;;9.87;9.57;;;1.80;99.90;;;;;;5079016;28;20222;-80
2023/03/06 02:03:48;;;;;;;9.70;9.40;;;1.80;99.90;;;;;;5082047;28;20305;-80
2023/03/06 02:06:20;;;;;;;9.70;9.40;;;1.80;99.90;;;;;;5075063;28;20231;-81
2023/03/06 02:08:49;;;;;;;9.80;9.50;;;1.80;99.90;;;;;;5078416;28;20237;-81
2023/03/06 02:11:22;;;;;;;9.80;9.50;;;1.80;99.90;;;;;;5082795;28;20240;-80
2023/03/06 02:14:00;;;;;;;9.90;9.60;;;1.90;99.90;;;;;;5075860;28;20265;-79
2023/03/06 02:16:31;;;;;;;9.90;9.60;;;1.90;99.90;;;;;;5080093;28;20278;-80
2023/03/06 02:19:01;;;;;;;9.83;9.53;;;1.90;99.90;;;;;;5073989;28;20290;-80
2023/03/06 02:21:36;;;;;;;9.60;9.30;;;1.80;99.90;;;;;;5065714;28;20235;-80
2023/03/06 02:24:24;;;;;;;9.60;9.30;;;1.70;99.90;;;;;;5082375;28;20261;-80
2023/03/06 02:26:56;;;;;;;9.40;9.10;;;1.70;99.90;;;;;;5055307;28;20229;-80
2023/03/06 02:29:32;;;;;;;9.70;9.40;;;1.60;99.90;;;;;;5073886;28;20238;-80
2023/03/06 02:32:00;;;;;;;9.80;9.50;;;1.60;99.90;;;;;;5071396;28;20225;-80
2023/03/06 02:34:52;;;;;;;9.80;9.50;;;1.60;99.90;;;;;;5077125;28;20234;-80
2023/03/06 02:37:20;;;;;;;9.80;9.50;;;1.60;99.90;;;;;;5073294;28;20230;-80
2023/03/06 02:39:54;;;;;;;10.00;9.70;;;1.60;99.90;;;;;;5076931;28;20241;-80
2023/03/06 02:42:27;;;;;;;9.80;9.50;;;1.60;99.90;;;;;;5075394;28;20249;-80
2023/03/06 02:44:56;;;;;;;10.17;9.87;;;1.60;99.90;;;;;;5069115;28;20239;-80
2023/03/06 02:47:25;;;;;;;9.90;9.60;;;1.60;99.90;;;;;;5075983;28;20240;-80
2023/03/06 02:49:54;;;;;;;9.90;9.60;;;1.60;99.90;;;;;;5047673;28;20231;-80
2023/03/06 02:52:23;;;;;;;10.00;9.70;;;1.60;99.90;;;;;;5079927;28;20337;-80
2023/03/06 02:54:53;;;;;;;9.90;9.60;;;1.60;99.90;;;;;;5086210;28;20325;-80
2023/03/06 02:57:24;;;;;;;9.70;9.40;;;1.70;99.90;;;;;;5083404;28;20246;-80
2023/03/06 02:59:52;;;;;;;10.07;9.77;;;1.70;99.90;;;;;;5063305;28;20321;-80
2023/03/06 03:02:21;;;;;;;9.90;9.60;;;1.80;99.90;;;;;;5077026;28;20704;-80
2023/03/06 03:04:50;;;;;;;10.03;9.73;;;1.90;99.90;;;;;;5079973;28;20333;-80
2023/03/06 03:07:22;;;;;;;10.00;9.70;;;1.90;99.90;;;;;;5072006;28;20250;-81
2023/03/06 03:09:50;;;;;;;9.70;9.40;;;1.90;99.90;;;;;;5083771;28;20234;-80
2023/03/06 03:12:21;;;;;;;9.83;9.53;;;1.90;99.90;;;;;;5075486;28;20310;-80
2023/03/06 03:14:51;;;;;;;9.90;9.60;;;1.90;99.90;;;;;;5074724;28;20238;-80
2023/03/06 03:17:19;;;;;;;9.83;9.53;;;1.90;99.90;;;;;;5074055;28;20328;-80
2023/03/06 03:19:48;;;;;;;9.80;9.50;;;2.00;99.90;;;;;;5069207;28;20236;-80
2023/03/06 03:22:17;;;;;;;9.87;9.57;;;2.00;99.90;;;;;;5078221;28;20280;-81
2023/03/06 03:24:46;;;;;;;9.80;9.50;;;2.00;99.90;;;;;;5068849;28;20258;-80
2023/03/06 03:27:16;;;;;;;9.90;9.60;;;2.00;99.90;;;;;;5079647;28;20261;-80
2023/03/06 03:29:45;;;;;;;10.03;9.73;;;2.00;99.90;;;;;;5065811;28;20286;-81
2023/03/06 03:35:02;;;;;;;9.90;9.60;;;2.00;99.90;;;;;;5059706;28;20233;-80
2023/03/06 03:37:30;;;;;;;9.90;9.60;;;2.00;99.90;;;;;;5071234;28;20231;-80
2023/03/06 03:40:03;;;;;;;9.60;9.30;;;1.90;99.90;;;;;;5080709;28;20232;-79
2023/03/06 03:42:31;;;;;;;9.80;9.50;;;1.90;99.90;;;;;;5097207;28;20226;-79
2023/03/06 03:44:59;;;;;;;9.80;9.50;;;1.90;99.90;;;;;;5098221;28;20310;-80
2023/03/06 03:47:31;;;;;;;9.67;9.37;;;1.90;99.90;;;;;;5093556;28;20241;-80
2023/03/06 03:49:59;;;;;;;9.60;9.30;;;2.00;99.90;;;;;;5090596;28;20223;-80
2023/03/06 03:52:28;;;;;;;9.80;9.50;;;2.00;99.90;;;;;;5090304;28;20274;-80
2023/03/06 03:54:57;;;;;;;9.30;9.00;;;2.10;99.90;;;;;;5089135;28;20234;-80
2023/03/06 03:57:27;;;;;;;9.60;9.30;;;2.10;99.90;;;;;;5088769;28;20232;-81
2023/03/06 03:59:59;;;;;;;9.70;9.40;;;2.20;99.90;;;;;;5062526;28;20298;-79
2023/03/06 04:02:29;;;;;;;9.43;9.13;;;2.20;99.90;;;;;;5071629;28;20282;-80
2023/03/06 04:04:57;;;;;;;9.67;9.37;;;2.20;99.90;;;;;;5069664;28;20240;-80
2023/03/06 04:07:26;;;;;;;9.40;9.10;;;2.10;99.90;;;;;;5069106;28;20237;-80
2023/03/06 04:09:55;;;;;;;9.47;9.17;;;2.10;99.90;;;;;;5075182;28;20223;-80
2023/03/06 04:12:26;;;;;;;9.43;9.13;;;2.00;99.90;;;;;;5072809;28;20322;-80
2023/03/06 04:14:55;;;;;;;9.70;9.40;;;1.90;99.90;;;;;;5064717;28;20234;-80
2023/03/06 04:17:24;;;;;;;9.83;9.53;;;1.80;99.90;;;;;;5073386;28;20236;-81
2023/03/06 04:19:55;;;;;;;9.87;9.57;;;1.80;99.90;;;;;;5065100;28;20258;-80
2023/03/06 04:22:22;;;;;;;9.60;9.30;;;1.80;99.90;;;;;;5072929;28;20218;-81
2023/03/06 04:24:50;;;;;;;9.77;9.47;;;1.80;99.90;;;;;;5072162;28;20244;-80
2023/03/06 04:27:19;;;;;;;9.70;9.40;;;1.80;99.90;;;;;;5064619;28;20231;-80
2023/03/06 04:29:55;;;;;;;9.70;9.40;;;1.70;99.90;;;;;;5075746;28;20249;-81
2023/03/06 04:32:22;;;;;;;9.73;9.43;;;1.60;99.90;;;;;;5076962;28;20257;-80
2023/03/06 04:34:50;;;;;;;9.30;9.00;;;1.60;99.90;;;;;;5073288;28;20226;-80
2023/03/06 04:37:29;;;;;;;10.00;9.70;;;1.60;99.90;;;;;;5080118;28;20234;-80
2023/03/06 04:39:58;;;;;;;9.73;9.43;;;1.60;99.90;;;;;;5066602;28;20254;-80
2023/03/06 04:42:25;;;;;;;9.93;9.63;;;1.50;99.90;;;;;;5081418;28;20321;-80
2023/03/06 04:44:57;;;;;;;10.00;9.70;;;1.50;99.90;;;;;;5065462;28;20251;-80
2023/03/06 04:47:26;;;;;;;9.90;9.60;;;1.50;99.90;;;;;;5072711;28;20227;-80
2023/03/06 04:49:55;;;;;;;9.87;9.57;;;1.50;99.90;;;;;;5076233;28;20325;-80
2023/03/06 04:52:28;;;;;;;10.00;9.70;;;1.40;99.90;;;;;;5075444;28;20287;-80
2023/03/06 04:54:55;;;;;;;9.90;9.60;;;1.40;99.90;;;;;;5056014;28;20330;-80
2023/03/06 04:57:24;;;;;;;9.80;9.50;;;1.50;99.90;;;;;;5072551;28;20282;-80
2023/03/06 04:59:54;;;;;;;9.77;9.47;;;1.50;99.90;;;;;;5064578;28;20229;-80
2023/03/06 05:02:23;;;;;;;9.80;9.50;;;1.40;99.90;;;;;;5080177;28;20298;-80
2023/03/06 05:04:52;;;;;;;9.87;9.57;;;1.40;99.90;;;;;;5072334;28;20238;-80
2023/03/06 05:07:19;;;;;;;10.00;9.70;;;1.40;99.90;;;;;;5080648;28;20258;-80
2023/03/06 05:10:01;;;;;;;10.30;10.00;;;1.40;99.90;;;;;;5075111;28;20230;-80
2023/03/06 05:12:30;;;;;;;10.20;9.90;;;1.40;99.90;;;;;;5073703;28;21180;-80
2023/03/06 05:14:59;;;;;;;10.13;9.83;;;1.40;99.90;;;;;;5079448;28;20530;-80
2023/03/06 05:17:29;;;;;;;10.33;10.03;;;1.40;99.90;;;;;;5070219;28;20254;-80
2023/03/06 05:20:06;;;;;;;10.17;9.87;;;1.40;99.90;;;;;;5077116;28;20223;-80
2023/03/06 05:22:37;;;;;;;10.10;9.80;;;1.40;99.90;;;;;;5080950;28;20244;-80
2023/03/06 05:25:14;;;;;;;10.03;9.73;;;1.40;99.90;;;;;;5082613;28;20725;-80
2023/03/06 05:27:43;;;;;;;9.97;9.67;;;1.40;99.90;;;;;;5071974;28;20230;-80
2023/03/06 05:30:14;;;;;;;9.80;9.50;;;1.40;99.90;;;;;;5074393;28;20294;-80
2023/03/06 05:32:42;;;;;;;9.77;9.47;;;1.50;99.90;;;;;;5075917;28;20318;-80
2023/03/06 05:35:22;;;;;;;9.83;9.53;;;1.50;99.90;;;;;;5075227;28;20230;-80
2023/03/06 05:37:50;;;;;;;9.80;9.50;;;1.40;99.90;;;;;;5080250;28;20230;-80
2023/03/06 05:40:22;;;;;;;9.90;9.60;;;1.40;99.90;;;;;;5076031;28;20231;-80
2023/03/06 05:42:50;;;;;;;9.70;9.40;;;1.50;99.90;;;;;;5072310;28;20214;-80
2023/03/06 05:45:18;;;;;;;10.47;10.17;;;1.40;99.90;;;;;;5072974;28;20238;-80
2023/03/06 05:47:48;;;;;;;10.90;10.60;;;1.40;99.90;;;;;;5073886;28;20238;-80
2023/03/06 05:50:17;;;;;;;10.50;10.20;;;1.40;99.90;;;;;;5082691;28;20260;-80
2023/03/06 05:52:46;;;;;;;10.30;10.00;;;1.40;99.90;;;;;;5088579;28;20230;-80
2023/03/06 05:55:14;;;;;;;10.40;10.10;;;1.40;99.90;;;;;;5069390;28;20245;-79
2023/03/06 05:57:53;;;;;;;10.67;10.37;;;1.30;99.90;;;;;;5069245;28;20238;-80
2023/03/06 06:00:25;;;;;;;10.50;10.20;;;1.40;99.90;;;;;;5076628;28;20241;-80
2023/03/06 06:02:55;;;;;;;10.33;10.03;;;1.30;99.90;;;;;;5059514;28;20279;-80
2023/03/06 06:05:24;;;;;;;10.40;10.10;;;1.30;99.90;;;;;;5076020;28;20245;-81
2023/03/06 06:07:53;;;;;;;10.33;10.03;;;1.40;99.90;;;;;;5075911;28;20298;-80
2023/03/06 06:10:23;;;;;;;10.60;10.30;;;1.40;99.90;;;;;;5076106;28;20265;-80
2023/03/06 06:12:58;;;;;;;10.57;10.27;;;1.40;99.90;;;;;;5077439;28;20235;-80
2023/03/06 06:15:34;;;;;;;10.40;10.10;;;1.50;99.90;;;;;;5084446;28;20241;-80
2023/03/06 06:18:01;;;;;;;10.40;10.10;;;1.40;99.90;;;;;;5081447;28;20285;-80
2023/03/06 06:20:29;;;;;;;10.20;9.90;;;1.50;99.90;;;;;;5073846;28;20239;-80
2023/03/06 06:22:59;;;;;;;10.20;9.90;;;1.50;99.90;;;;;;5081243;28;20226;-80
2023/03/06 06:25:28;;;;;;;10.27;9.97;;;1.50;99.90;;;;;;5079771;28;20329;-80
2023/03/06 06:28:02;;;;;;;10.40;10.10;;;1.50;99.90;;;;;;5077893;28;20249;-80
2023/03/06 06:30:30;;;;;;;10.40;10.10;;;1.50;99.90;;;;;;5078026;28;20239;-80
2023/03/06 06:32:57;;;;;;;10.40;10.10;;;1.50;99.90;;;;;;5088020;28;20276;-81
2023/03/06 06:35:26;;;;;;;10.43;10.13;;;1.50;99.90;;;;;;5079525;28;20269;-80
2023/03/06 06:37:56;;;;;;;10.33;10.03;;;1.50;99.90;;;;;;5062812;28;20269;-80
2023/03/06 06:40:26;;;;;;;10.30;10.00;;;1.60;99.90;;;;;;5071325;28;20265;-80
2023/03/06 06:42:55;;;;;;;10.27;9.97;;;1.60;99.90;;;;;;5075191;28;20215;-80
2023/03/06 06:45:27;;;;;;;10.40;10.10;;;1.60;99.90;;;;;;5075322;28;20306;-80
2023/03/06 06:47:55;;;;;;;10.23;9.93;;;1.60;99.90;;;;;;5067466;28;20333;-80
2023/03/06 06:50:23;;;;;;;10.10;9.80;;;1.70;99.90;;;;;;5067709;28;20318;-80
2023/03/06 06:52:51;;;;;;;10.10;9.80;;;1.70;99.90;;;;;;5076755;28;20279;-80
2023/03/06 06:55:23;;;;;;;9.83;9.53;;;1.80;99.90;;;;;;5075945;28;20332;-80
2023/03/06 06:57:52;;;;;;;9.97;9.67;;;1.80;99.90;;;;;;5078110;28;20742;-80
2023/03/06 07:00:20;;;;;;;10.00;9.70;;;1.80;99.90;;;;;;5087702;28;20325;-80
2023/03/06 07:02:53;;;;;;;10.00;9.70;;;1.90;99.90;;;;;;5075959;28;20238;-80
2023/03/06 07:05:23;;;;;;;10.00;9.70;;;1.90;99.90;;;;;;5077894;28;20249;-80
2023/03/06 07:07:50;;;;;;;10.50;10.20;;;2.00;99.90;;;;;;5072200;28;20312;-80
2023/03/06 07:10:18;;;;;;;10.50;10.20;;;2.10;99.90;;;;;;5078017;28;20431;-79
2023/03/06 07:12:48;;;;;;;10.10;9.80;;;2.10;99.90;;;;;;5084245;28;20238;-79
2023/03/06 07:15:18;;;;;;;10.37;10.07;;;2.10;99.90;;;;;;5090947;28;20236;-79
2023/03/06 07:17:45;;;;;;;10.20;9.90;;;2.20;99.90;;;;;;5094569;28;20218;-80
2023/03/06 07:20:19;;;;;;;10.30;10.00;;;2.20;99.90;;;;;;5075000;28;20333;-80
2023/03/06 07:22:46;;;;;;;10.30;10.00;;;2.20;99.90;;;;;;5066307;28;20262;-79
2023/03/06 07:25:14;;;;;;;10.20;9.90;;;2.30;99.90;;;;;;5070386;28;20322;-79
2023/03/06 07:27:46;;;;;;;10.30;10.00;;;2.30;99.90;;;;;;5081134;28;20236;-79
2023/03/06 07:30:14;;;;;;;10.07;9.77;;;2.40;99.90;;;;;;5082171;28;20218;-80
2023/03/06 07:32:43;;;;;;;10.40;10.10;;;2.40;99.90;;;;;;5080823;28;20227;-79
2023/03/06 07:35:14;;;;;;;10.20;9.90;;;2.50;99.90;;;;;;5074053;28;20242;-79
2023/03/06 07:37:44;;;;;;;10.00;9.70;;;2.60;99.90;;;;;;5083007;28;20234;-79
2023/03/06 07:40:29;;;;;;;10.27;9.97;;;2.60;99.90;;;;;;5082907;28;20241;-79
2023/03/06 07:43:00;;;;;;;10.27;9.97;;;2.70;99.90;;;;;;5072641;28;20258;-79
2023/03/06 07:45:28;;;;;;;10.20;9.90;;;2.70;99.90;;;;;;5087305;28;20240;-79
2023/03/06 07:47:56;;;;;;;10.10;9.80;;;2.70;99.90;;;;;;5094072;28;20241;-79
2023/03/06 07:50:25;;;;;;;10.23;9.93;;;2.80;99.90;;;;;;5091747;28;20238;-79
2023/03/06 07:52:55;;;;;;;10.07;9.77;;;2.90;99.90;;;;;;5087554;28;20225;-79
2023/03/06 07:55:23;;;;;;;10.20;9.90;;;2.90;99.90;;;;;;5087341;28;20336;-79
2023/03/06 07:57:55;;;;;;;9.73;9.43;;;2.90;99.90;;;;;;5089721;28;20349;-79
2023/03/06 08:00:26;;;;;;;9.90;9.60;;;3.00;99.90;;;;;;5089565;28;20222;-79
2023/03/06 08:02:58;;;;;;;10.00;9.70;;;3.00;99.90;;;;;;5088729;28;20245;-78
2023/03/06 08:05:25;;;;;;;9.60;9.30;;;3.00;99.90;;;;;;5088752;28;20297;-78
2023/03/06 08:07:56;;;;;;;9.60;9.30;;;3.10;99.90;;;;;;5088392;28;20248;-79
2023/03/06 08:10:24;;;;;;;9.73;9.43;;;3.10;99.90;;;;;;5086287;28;20222;-79
2023/03/06 08:12:52;;;;;;;9.40;9.10;;;3.20;99.90;;;;;;5084758;28;20237;-79
2023/03/06 08:15:21;;;;;;;9.60;9.30;;;3.20;99.90;;;;;;5086954;28;20285;-79
2023/03/06 08:17:51;;;;;;;10.00;9.70;;;3.20;99.90;;;;;;5087356;28;20294;-80
2023/03/06 08:20:20;;;;;;;9.90;9.60;;;3.30;99.90;;;;;;5085767;28;20230;-79
2023/03/06 08:22:47;;;;;;;9.57;9.27;;;3.30;99.90;;;;;;5076836;28;20312;-78
2023/03/06 08:25:17;;;;;;;9.83;9.53;;;3.40;99.90;;;;;;5071504;28;20293;-77
2023/03/06 08:27:48;;;;;;;9.90;9.60;;;3.50;99.90;;;;;;5073796;28;20215;-78
2023/03/06 08:30:16;;;;;;;9.80;9.50;;;3.50;99.90;;;;;;5070087;28;20230;-79
2023/03/06 08:32:49;;;;;;;10.10;9.80;;;3.50;99.90;;;;;;5072163;28;20238;-78
2023/03/06 08:35:17;;;;;;;10.00;9.70;;;3.50;99.90;;;;;;5071887;28;20334;-78
2023/03/06 08:37:45;;;;;;;10.10;9.80;;;3.50;99.90;;;;;;5073467;28;20215;-79
2023/03/06 08:40:15;;;;;;;10.17;9.87;;;3.50;99.90;;;;;;5086215;28;20282;-79
2023/03/06 08:42:44;;;;;;;9.90;9.60;;;3.50;99.90;;;;;;5074861;28;20217;-77
2023/03/06 08:45:12;;;;;;;9.80;9.50;;;3.50;99.90;;;;;;5078548;28;20296;-78
2023/03/06 08:47:39;;;;;;;9.80;9.50;;;3.50;99.90;;;;;;5079254;28;20250;-80
2023/03/06 08:50:07;;;;;;;9.83;9.53;;;3.60;99.90;;;;;;5080153;28;20242;-79
2023/03/06 08:52:36;;;;;;;9.77;9.47;;;3.70;99.90;;;;;;5076461;28;20273;-78
2023/03/06 08:55:06;;;;;;;9.73;9.43;;;3.70;99.90;;;;;;5069230;28;20314;-82
2023/03/06 08:57:35;;;;;;;9.50;9.20;;;3.80;99.90;;;;;;5070180;28;20246;-83
2023/03/06 09:00:12;;;;;;;9.40;9.10;;;3.80;99.90;;;;;;5069213;28;20230;-80
2023/03/06 09:02:42;;;;;;;9.30;9.00;;;3.80;99.90;;;;;;5070304;28;20226;-79
2023/03/06 09:05:11;;;;;;;9.70;9.40;;;3.90;99.90;;;;;;5070265;28;20299;-79
2023/03/06 09:07:39;;;;;;;9.70;9.40;;;4.00;99.90;;;;;;5070597;28;20287;-79
2023/03/06 09:10:08;;;;;;;9.80;9.50;;;4.00;99.90;;;;;;5071194;28;20298;-80
2023/03/06 09:12:37;;;;;;;9.87;9.57;;;4.10;99.90;;;;;;5063319;28;20235;-77
2023/03/06 09:15:08;;;;;;;9.80;9.50;;;4.20;99.90;;;;;;5064174;28;20329;-78
2023/03/06 09:17:35;;;;;;;9.70;9.40;;;4.10;99.90;;;;;;5063862;28;20322;-79
2023/03/06 09:20:03;;;;;;;9.70;9.40;;;4.10;99.90;;;;;;5072962;28;20226;-79
2023/03/06 09:22:31;;;;;;;9.80;9.50;;;4.10;99.90;;;;;;5072404;28;20223;-80
2023/03/06 09:24:59;;;;;;;9.87;9.57;;;4.10;99.90;;;;;;5088624;28;20327;-80
2023/03/06 09:27:28;;;;;;;9.97;9.67;;;4.10;99.90;;;;;;5079217;28;20262;-80
2023/03/06 09:29:56;;;;;;;9.80;9.50;;;4.20;99.90;;;;;;5078779;28;20222;-79
2023/03/06 09:32:27;;;;;;;9.90;9.60;;;4.30;99.90;;;;;;5067839;28;20230;-78
2023/03/06 09:34:57;;;;;;;10.07;9.77;;;4.30;99.90;;;;;;5067747;28;20232;-79
2023/03/06 09:37:26;;;;;;;9.63;9.33;;;4.40;99.90;;;;;;5072305;28;20266;-80
2023/03/06 09:39:55;;;;;;;9.70;9.40;;;4.30;99.90;;;;;;5069150;28;20246;-79
2023/03/06 09:42:24;;;;;;;9.70;9.40;;;4.40;99.90;;;;;;5065219;28;20273;-78
2023/03/06 09:44:57;;;;;;;9.80;9.50;;;4.50;99.90;;;;;;5073018;28;20234;-79
2023/03/06 09:47:43;;;;;;;9.60;9.30;;;4.60;99.90;;;;;;5082885;28;20380;-78
2023/03/06 09:50:36;;;;;;;9.50;9.20;;;4.70;99.90;;;;;;5049953;28;20235;-79
2023/03/06 09:53:22;;;;;;;9.57;9.27;;;4.90;99.90;;;;;;5045025;28;20236;-79
2023/03/06 09:56:04;;;;;;;9.60;9.30;;;5.00;99.90;;;;;;5075189;28;20242;-79
2023/03/06 09:58:40;;;;;;;9.37;9.07;;;5.10;99.90;;;;;;5072375;28;20231;-79
2023/03/06 10:01:19;;;;;;;9.27;8.97;;;5.10;99.90;;;;;;5076074;28;20233;-80
2023/03/06 10:03:56;;;;;;;9.50;9.20;;;5.10;99.90;;;;;;5078139;28;20218;-80
2023/03/06 10:06:29;;;;;;;9.87;9.57;;;4.90;99.90;;;;;;5088882;28;20240;-81
2023/03/06 10:09:04;;;;;;;9.80;9.50;;;4.80;99.90;;;;;;5088152;28;20237;-80
2023/03/06 10:11:37;;;;;;;9.90;9.60;;;4.60;99.90;;;;;;5090152;28;20226;-80
2023/03/06 10:14:19;;;;;;;10.17;9.87;;;4.50;99.90;;;;;;5088782;28;20244;-80
2023/03/06 10:16:47;;;;;;;10.10;9.80;;;4.50;99.90;;;;;;5090712;28;20252;-79
2023/03/06 10:19:19;;;;;;;9.70;9.40;;;4.60;99.90;;;;;;5090671;28;20234;-79
2023/03/06 10:21:58;;;;;;;9.50;9.20;;;4.60;99.90;;;;;;5090095;28;20326;-80
2023/03/06 10:24:49;;;;;;;10.00;9.70;;;4.70;99.90;;;;;;5089338;28;20234;-80
2023/03/06 10:27:27;;;;;;;10.17;9.87;;;4.60;99.90;;;;;;5088885;28;20235;-82
2023/03/06 10:30:05;;;;;;;10.00;9.70;;;4.60;99.90;;;;;;5087897;28;20249;-80
2023/03/06 10:32:43;;;;;;;10.10;9.80;;;4.70;99.90;;;;;;5075522;28;20265;-80
2023/03/06 10:35:20;;;;;;;10.03;9.73;;;4.70;99.90;;;;;;5066766;28;20246;-80
2023/03/06 10:37:48;;;;;;;10.07;9.77;;;4.80;99.90;;;;;;5079122;28;20234;-80
2023/03/06 10:40:21;;;;;;;10.13;9.83;;;4.90;99.90;;;;;;5090193;28;20241;-80
2023/03/06 10:42:48;;;;;;;10.10;9.80;;;5.00;99.90;;;;;;5091627;28;20237;-80
2023/03/06 10:45:18;;;;;;;10.10;9.80;;;4.90;99.90;;;;;;5093603;28;20226;-81
2023/03/06 10:47:46;;;;;;;10.20;9.90;;;4.90;99.90;;;;;;5092616;28;21054;-81
2023/03/06 10:50:29;;;;;;;10.60;10.30;;;4.90;99.90;;;;;;5084616;28;20235;-80
2023/03/06 10:53:04;;;;;;;10.30;10.00;;;4.80;99.90;;;;;;5080381;28;20235;-80
2023/03/06 10:55:33;;;;;;;10.10;9.80;;;4.70;99.90;;;;;;5071078;28;20226;-79
2023/03/06 10:58:20;;;;;;;10.20;9.90;;;4.60;99.90;;;;;;5069214;28;20230;-79
2023/03/06 11:00:48;;;;;;;10.10;9.80;;;4.60;99.90;;;;;;5075297;28;20317;-80
2023/03/06 11:03:29;;;;;;;9.90;9.60;;;4.60;99.90;;;;;;5078200;28;20278;-79
2023/03/06 11:06:11;;;;;;;10.10;9.80;;;4.60;99.90;;;;;;5059219;28;20237;-80
2023/03/06 11:08:41;;;;;;;10.23;9.93;;;4.70;99.90;;;;;;5052316;28;20231;-81
2023/03/06 11:11:13;;;;;;;9.83;9.53;;;4.70;99.90;;;;;;5045280;28;20321;-81
2023/03/06 11:13:43;;;;;;;9.90;9.60;;;4.70;99.90;;;;;;5044649;28;20231;-80
2023/03/06 11:16:19;;;;;;;9.87;9.57;;;4.70;99.90;;;;;;5045203;28;20258;-80
2023/03/06 11:18:58;;;;;;;9.80;9.50;;;4.80;99.90;;;;;;5045186;28;20245;-79
2023/03/06 11:21:35;;;;;;;9.83;9.53;;;4.80;99.90;;;;;;5045823;28;20242;-79
2023/03/06 11:24:07;;;;;;;9.30;9.00;;;4.90;99.90;;;;;;5046410;28;20235;-79
2023/03/06 11:26:48;;;;;;;9.60;9.30;;;4.90;99.90;;;;;;5045682;28;20224;-80
2023/03/06 11:29:33;;;;;;;9.80;9.50;;;4.80;99.90;;;;;;5044349;28;20330;-81
2023/03/06 11:32:11;;;;;;;9.70;9.40;;;4.80;99.90;;;;;;5046800;28;20223;-81
2023/03/06 11:34:49;;;;;;;9.67;9.37;;;4.70;99.90;;;;;;5042581;28;20243;-80
2023/03/06 11:37:34;;;;;;;9.87;9.57;;;4.70;99.90;;;;;;5042208;28;20287;-78
2023/03/06 11:40:15;;;;;;;9.70;9.40;;;4.60;99.90;;;;;;5041984;28;20235;-78
2023/03/06 11:42:53;;;;;;;9.70;9.40;;;4.50;99.90;;;;;;5039386;28;20321;-78
2023/03/06 11:45:30;;;;;;;9.70;9.40;;;4.40;99.90;;;;;;5039334;28;20322;-79
2023/03/06 11:48:08;;;;;;;9.53;9.23;;;4.30;99.90;;;;;;5040363;28;20223;-78
2023/03/06 11:50:40;;;;;;;9.80;9.50;;;4.30;99.90;;;;;;5049273;28;20235;-79
2023/03/06 11:53:17;;;;;;;9.90;9.60;;;4.40;99.90;;;;;;5081369;28;20300;-81
2023/03/06 11:55:56;;;;;;;10.20;9.90;;;4.50;99.90;;;;;;5067108;28;20289;-81
2023/03/06 11:59:26;;;;;;;10.00;9.70;;;4.60;99.90;;;;;;5068004;28;20253;-83
2023/03/06 12:02:06;;;;;;;10.13;9.83;;;4.60;99.90;;;;;;5018857;28;20223;-80
2023/03/06 12:04:52;;;;;;;10.10;9.80;;;4.50;99.90;;;;;;5068513;28;20253;-80
2023/03/06 12:07:30;;;;;;;9.90;9.60;;;4.50;99.90;;;;;;5071061;28;20258;-80
2023/03/06 12:10:17;;;;;;;10.17;9.87;;;4.60;99.90;;;;;;5071016;28;20230;-80
2023/03/06 12:13:26;;;;;;;10.10;9.80;;;4.60;99.90;;;;;;5070183;28;20258;-80
2023/03/06 12:16:18;;;;;;;10.10;9.80;;;4.60;99.90;;;;;;5069082;28;20314;-82
2023/03/06 12:18:57;;;;;;;10.07;9.77;;;4.60;99.90;;;;;;5068022;28;20239;-80
2023/03/06 12:21:36;;;;;;;10.00;9.70;;;4.80;99.90;;;;;;5070129;28;20270;-80
2023/03/06 12:24:22;;;;;;;9.80;9.50;;;5.00;99.90;;;;;;5067686;28;20227;-81
2023/03/06 12:27:02;;;;;;;10.00;9.70;;;5.00;99.90;;;;;;5070388;28;20215;-79
2023/03/06 12:29:52;;;;;;;10.10;9.80;;;5.10;99.90;;;;;;5072010;28;20290;-80
2023/03/06 12:32:40;;;;;;;9.87;9.57;;;5.30;99.90;;;;;;5070739;28;20230;-80
2023/03/06 12:35:47;;;;;;;9.80;9.50;;;5.30;99.90;;;;;;5068079;28;20234;-80
2023/03/06 12:38:52;;;;;;;9.87;9.57;;;5.30;99.90;;;;;;5069114;28;20242;-82
2023/03/06 12:41:31;;;;;;;9.77;9.47;;;5.30;99.90;;;;;;5069252;28;20234;-80
2023/03/06 12:44:43;;;;;;;9.80;9.50;;;5.30;99.90;;;;;;5066114;28;20258;-81
2023/03/06 12:47:14;;;;;;;10.00;9.70;;;5.30;99.90;;;;;;5047063;28;20234;-80
2023/03/06 12:49:44;;;;;;;10.00;9.70;;;5.30;99.90;;;;;;5047925;28;20231;-81
2023/03/06 12:52:32;;;;;;;9.73;9.43;;;5.20;99.90;;;;;;5045621;28;20298;-81
2023/03/06 12:57:47;;;;;;;9.60;9.30;;;5.10;99.90;;;;;;5046240;28;20259;-81
2023/03/06 13:01:05;;;;;;;9.80;9.50;;;5.20;99.90;;;;;;5046749;28;20227;-80
2023/03/06 13:03:57;;;;;;;9.70;9.40;;;5.30;99.90;;;;;;5070403;28;20728;-79
2023/03/06 13:06:50;;;;;;;9.70;9.40;;;5.30;99.90;;;;;;5066936;28;20241;-80
2023/03/06 13:09:22;;;;;;;9.50;9.20;;;5.30;99.90;;;;;;5070270;28;20294;-80
2023/03/06 13:12:26;;;;;;;9.30;9.00;;;5.30;99.90;;;;;;5068125;28;20956;-78
2023/03/06 13:14:58;;;;;;;9.40;9.10;;;5.20;99.90;;;;;;5066557;28;20321;-80
2023/03/06 13:17:35;;;;;;;9.60;9.30;;;5.10;99.90;;;;;;5066000;28;20254;-80
2023/03/06 13:20:41;;;;;;;9.63;9.33;;;5.00;99.90;;;;;;5073362;28;20246;-82
2023/03/06 13:23:52;;;;;;;9.60;9.30;;;5.00;99.90;;;;;;5062987;28;20329;-82
2023/03/06 13:26:56;;;;;;;9.47;9.17;;;5.20;99.90;;;;;;5076128;28;20305;-83